Time;durP1;ratioP1;P1;durP2;ratioP2;P2;SDS_P1;SDS_P2;PMS_P1;PMS_P2;Temp;Humidity;BMP_temperature;BMP_pressure;BME280_temperature;BME280_humidity;BME280_pressure;Samples;Min_cycle;Max_cycle;Signal;HPM_P1;HPM_P2
2022/08/08 00:00:12;;;;;;;;;2.00;2.00;;;;;23.65;34.15;101662.06;2058788;28;47971;-65
2022/08/08 00:01:23;;;;;;;;;1.80;1.00;;;;;23.64;34.07;101661.19;2065145;28;47341;-65
2022/08/08 00:02:49;;;;;;;;;9.20;8.40;;;;;23.62;34.37;101656.81;2069285;28;48305;-65
2022/08/08 00:04:10;;;;;;;;;3.00;3.00;;;;;23.60;34.31;101661.47;2090941;28;47896;-65
2022/08/08 00:05:29;;;;;;;;;2.20;2.20;;;;;23.59;34.50;101660.59;2101853;28;47850;-64
2022/08/08 00:06:47;;;;;;;;;2.00;2.00;;;;;23.58;34.29;101663.41;2104659;28;47471;-64
2022/08/08 00:07:51;;;;;;;;;2.00;1.00;;;;;23.58;34.48;101655.28;2104724;27;47331;-65
2022/08/08 00:09:09;;;;;;;;;3.00;3.00;;;;;23.58;34.64;101657.97;2104919;27;48241;-66
2022/08/08 00:10:16;;;;;;;;;3.40;2.40;;;;;23.57;34.64;101656.19;2102914;28;47286;-64
2022/08/08 00:11:27;;;;;;;;;1.00;1.00;;;;;23.57;34.84;101659.78;2104823;27;47417;-65
2022/08/08 00:12:43;;;;;;;;;3.40;2.40;;;;;23.56;34.98;101659.88;2104795;27;47519;-64
2022/08/08 00:14:05;;;;;;;;;2.60;2.60;;;;;23.55;34.58;101661.72;2105074;27;47406;-64
2022/08/08 00:15:16;;;;;;;;;2.00;1.80;;;;;23.54;34.86;101661.81;2103739;28;47834;-65
2022/08/08 00:16:27;;;;;;;;;2.00;2.00;;;;;23.53;34.72;101657.38;2104648;27;47789;-66
2022/08/08 00:17:39;;;;;;;;;2.20;2.20;;;;;23.51;35.04;101662.00;2104816;27;47492;-65
2022/08/08 00:18:53;;;;;;;;;4.00;3.00;;;;;23.49;35.20;101651.25;2104706;28;47328;-64
2022/08/08 00:20:01;;;;;;;;;2.40;2.00;;;;;23.46;34.78;101656.84;2103692;28;47858;-66
2022/08/08 00:21:03;;;;;;;;;3.00;3.00;;;;;23.48;35.27;101654.91;2104652;27;47390;-64
2022/08/08 00:22:11;;;;;;;;;1.80;1.80;;;;;23.45;34.95;101657.81;2104954;27;48031;-65
2022/08/08 00:23:24;;;;;;;;;2.00;2.00;;;;;23.42;35.26;101656.19;2104824;27;47613;-65
2022/08/08 00:24:45;;;;;;;;;2.00;2.00;;;;;23.39;35.22;101655.50;2104563;27;47224;-64
2022/08/08 00:25:51;;;;;;;;;3.60;3.60;;;;;23.38;35.21;101653.75;2104587;27;47311;-64
2022/08/08 00:26:57;;;;;;;;;2.00;2.00;;;;;23.36;35.49;101651.09;2104682;27;47663;-65
2022/08/08 00:28:00;;;;;;;;;2.00;2.00;;;;;23.35;35.09;101649.38;2104629;28;47889;-64
2022/08/08 00:29:12;;;;;;;;;3.20;3.20;;;;;23.34;35.63;101653.03;2104471;27;47638;-66
2022/08/08 00:30:13;;;;;;;;;2.20;2.20;;;;;23.32;35.51;101648.69;2097531;28;47893;-65
2022/08/08 00:31:20;;;;;;;;;5.40;2.60;;;;;23.28;35.85;101647.16;2104509;27;47420;-65
2022/08/08 00:32:30;;;;;;;;;1.20;1.20;;;;;23.26;35.54;101643.66;2104629;27;47542;-65
2022/08/08 00:33:40;;;;;;;;;2.60;2.60;;;;;23.26;35.47;101643.66;2104673;27;48049;-65
2022/08/08 00:35:13;;;;;;;;;3.00;3.00;;;;;23.25;35.50;101647.31;2111780;27;47483;-65
2022/08/08 00:36:30;;;;;;;;;3.80;3.80;;;;;23.24;35.87;101642.84;2107289;27;47914;-64
2022/08/08 00:37:49;;;;;;;;;2.80;2.80;;;;;23.23;35.78;101644.69;2104346;27;47593;-65
2022/08/08 00:39:01;;;;;;;;;1.60;1.60;;;;;23.23;35.78;101644.69;2104735;27;47522;-65
2022/08/08 00:40:31;;;;;;;;;3.00;3.00;;;;;23.22;35.77;101647.50;2103874;28;47344;-64
2022/08/08 00:41:32;;;;;;;;;3.60;3.60;;;;;23.18;36.01;101649.53;2104315;28;47891;-63
2022/08/08 00:42:53;;;;;;;;;3.75;3.75;;;;;23.16;36.13;101646.91;2104871;27;47396;-64
2022/08/08 00:44:03;;;;;;;;;3.00;3.00;;;;;23.14;36.10;101645.25;2095640;28;47722;-65
2022/08/08 00:45:21;;;;;;;;;3.00;3.00;;;;;23.13;36.20;101646.22;2097124;28;47577;-66
2022/08/08 00:46:40;;;;;;;;;3.20;2.20;;;;;23.12;36.46;101650.78;2104498;27;47296;-65
2022/08/08 00:48:13;;;;;;;;;2.40;2.40;;;;;23.12;36.34;101647.16;2104485;27;48023;-64
2022/08/08 00:49:35;;;;;;;;;3.20;2.80;;;;;23.13;36.20;101649.81;2104271;28;47818;-65
2022/08/08 00:51:01;;;;;;;;;3.80;3.80;;;;;23.10;36.45;101641.84;2104666;27;47460;-65
2022/08/08 00:52:17;;;;;;;;;2.20;2.20;;;;;23.10;36.25;101643.69;2104252;28;47592;-65
2022/08/08 00:53:48;;;;;;;;;3.40;2.00;;;;;23.10;36.72;101640.97;2098821;28;47811;-65
2022/08/08 00:55:34;;;;;;;;;3.60;3.60;;;;;23.09;36.56;101637.38;2104429;27;47420;-64
2022/08/08 00:56:38;;;;;;;;;1.40;1.40;;;;;;;;2104671;28;47718;-65
2022/08/08 00:57:57;;;;;;;;;3.20;3.20;;;;;23.06;36.56;101634.88;2104704;27;47442;-65
2022/08/08 00:59:16;;;;;;;;;4.00;3.80;;;;;23.06;36.57;101637.59;2104537;27;47700;-65
2022/08/08 01:00:20;;;;;;;;;3.00;2.20;;;;;23.07;37.03;101638.44;2104221;27;47527;-64
2022/08/08 01:01:59;;;;;;;;;5.00;3.80;;;;;23.05;36.42;101638.56;2104499;27;47230;-64
2022/08/08 01:03:21;;;;;;;;;3.00;3.00;;;;;23.04;37.06;101644.06;2104740;27;47228;-66
2022/08/08 01:04:40;;;;;;;;;3.80;3.80;;;;;23.00;37.14;101629.84;2104500;27;47278;-64
2022/08/08 01:05:58;;;;;;;;;3.00;3.00;;;;;22.99;36.90;101638.03;2104612;28;46929;-65
2022/08/08 01:07:18;;;;;;;;;2.60;2.60;;;;;22.98;36.97;101630.88;2111920;27;47347;-64
2022/08/08 01:08:56;;;;;;;;;5.00;3.40;;;;;22.98;36.89;101642.56;2104166;27;47814;-64
2022/08/08 01:10:17;;;;;;;;;5.00;4.00;;;;;22.96;37.23;101632.78;2104002;28;47188;-64
2022/08/08 01:11:39;;;;;;;;;4.00;4.00;;;;;22.94;37.17;101627.47;2105532;28;47749;-65
2022/08/08 01:13:00;;;;;;;;;3.20;3.20;;;;;22.93;36.99;101631.16;2105895;27;48010;-64
2022/08/08 01:14:25;;;;;;;;;5.00;4.00;;;;;22.93;36.97;101635.69;2105980;27;47900;-64
2022/08/08 01:15:55;;;;;;;;;4.80;4.80;;;;;22.90;37.42;101625.91;2097648;28;47485;-64
2022/08/08 01:17:06;;;;;;;;;2.60;2.60;;;;;22.89;36.92;101630.47;2097488;28;47864;-65
2022/08/08 01:18:31;;;;;;;;;3.20;3.20;;;;;22.88;37.58;101631.44;2105346;28;47741;-65
2022/08/08 01:20:22;;;;;;;;;2.00;2.00;;;;;22.86;37.17;101627.91;2105969;27;47312;-64
2022/08/08 01:21:41;;;;;;;;;4.00;3.60;;;;;22.83;37.06;101630.81;2105634;27;47920;-65
2022/08/08 01:23:06;;;;;;;;;3.00;3.00;;;;;22.82;37.39;101623.63;2105258;28;47173;-65
2022/08/08 01:24:29;;;;;;;;;3.00;3.00;;;;;22.80;37.45;101628.25;2105558;28;47656;-65
2022/08/08 01:26:13;;;;;;;;;3.20;3.20;;;;;22.78;37.56;101626.59;2099051;28;47982;-66
2022/08/08 01:27:48;;;;;;;;;3.60;3.60;;;;;22.77;37.41;101620.31;2105618;28;47485;-65
2022/08/08 01:28:51;;;;;;;;;3.40;3.40;;;;;22.77;37.93;101623.03;2105625;27;47616;-66
2022/08/08 01:30:29;;;;;;;;;3.20;2.20;;;;;22.77;37.43;101619.44;2106059;27;47771;-65
2022/08/08 01:31:58;;;;;;;;;3.20;2.20;;;;;22.77;37.82;101622.16;2105391;28;47754;-66
2022/08/08 01:33:13;;;;;;;;;4.60;4.60;;;;;22.76;37.75;101621.28;2104495;28;47794;-64
2022/08/08 01:34:44;;;;;;;;;3.20;3.20;;;;;22.74;37.93;101620.50;2105770;27;48126;-64
2022/08/08 01:36:09;;;;;;;;;4.60;3.40;;;;;22.74;37.51;101620.50;2105735;27;47691;-65
2022/08/08 01:37:47;;;;;;;;;3.80;3.80;;;;;22.70;37.52;101615.34;2106092;28;48189;-64
2022/08/08 01:39:03;;;;;;;;;2.00;2.00;;;;;22.67;37.76;101619.09;2110026;27;47718;-64
2022/08/08 01:40:18;;;;;;;;;4.40;4.40;;;;;22.66;37.87;101617.38;2105263;28;48304;-64
2022/08/08 01:41:50;;;;;;;;;4.20;4.20;;;;;22.66;38.02;101620.06;2105864;27;47702;-64
2022/08/08 01:43:02;;;;;;;;;4.40;4.40;;;;;22.65;38.14;101629.16;2097623;28;47679;-65
2022/08/08 01:44:32;;;;;;;;;2.00;2.00;;;;;22.64;38.26;101623.84;2104198;28;47587;-65
2022/08/08 01:45:54;;;;;;;;;3.20;3.00;;;;;22.64;38.34;101627.41;2105241;28;47766;-63
2022/08/08 01:47:09;;;;;;;;;2.00;2.00;;;;;22.63;37.83;101627.50;2105620;28;47451;-65
2022/08/08 01:48:32;;;;;;;;;1.80;1.80;;;;;22.63;37.99;101631.06;2105938;27;48261;-64
2022/08/08 01:49:51;;;;;;;;;5.00;5.00;;;;;22.61;37.92;101630.25;2105791;27;47274;-65
2022/08/08 01:51:12;;;;;;;;;3.00;3.00;;;;;22.60;38.38;101629.41;2105774;27;48068;-64
2022/08/08 01:52:32;;;;;;;;;5.80;4.40;;;;;22.61;38.12;101633.88;2105407;27;48183;-63
2022/08/08 01:53:51;;;;;;;;;4.80;4.20;;;;;22.63;38.56;101627.50;2113606;27;47895;-64
2022/08/08 01:54:57;;;;;;;;;3.80;3.00;;;;;22.61;38.20;101631.16;2104922;28;47292;-63
2022/08/08 01:56:25;;;;;;;;;3.20;3.00;;;;;22.60;38.41;101631.22;2096688;28;48189;-63
2022/08/08 01:57:37;;;;;;;;;3.80;3.80;;;;;22.59;38.32;101624.06;2097010;28;46021;-64
2022/08/08 01:59:13;;;;;;;;;3.00;3.00;;;;;22.58;38.59;101628.63;2103603;28;47338;-64
2022/08/08 02:00:48;;;;;;;;;4.00;4.00;;;;;22.57;38.51;101621.47;2104019;28;48164;-64
2022/08/08 02:02:05;;;;;;;;;4.40;4.40;;;;;22.56;38.32;101625.13;2105738;28;47719;-64
2022/08/08 02:03:33;;;;;;;;;5.00;4.60;;;;;22.55;38.54;101628.81;2105770;27;47529;-65
2022/08/08 02:04:45;;;;;;;;;3.40;3.40;;;;;22.52;38.74;101620.88;2105619;27;47862;-64
2022/08/08 02:05:57;;;;;;;;;6.80;5.60;;;;;22.52;38.83;101625.41;2106028;27;47628;-65
2022/08/08 02:07:07;;;;;;;;;4.00;4.00;;;;;22.51;38.72;101629.06;2104638;28;47462;-63
2022/08/08 02:08:22;;;;;;;;;3.00;3.00;;;;;22.50;38.67;101625.50;2113553;27;47477;-64
2022/08/08 02:09:31;;;;;;;;;4.60;4.60;;;;;22.48;38.79;101626.53;2095912;28;45919;-65
2022/08/08 02:10:44;;;;;;;;;5.80;5.00;;;;;22.46;38.65;101623.91;2097187;28;46177;-64
2022/08/08 02:11:47;;;;;;;;;4.00;4.00;;;;;22.46;38.85;101625.75;2104560;28;47627;-65
2022/08/08 02:13:02;;;;;;;;;5.80;5.00;;;;;22.44;38.63;101628.53;2105700;27;47703;-65
2022/08/08 02:14:50;;;;;;;;;5.00;5.00;;;;;22.43;38.89;101625.91;2104937;28;47299;-66
2022/08/08 02:16:15;;;;;;;;;5.20;4.60;;;;;22.45;38.92;101629.41;2069557;28;47425;-66
2022/08/08 02:17:28;;;;;;;;;5.20;5.20;;;;;22.42;39.12;101625.06;2074512;28;47455;-65
2022/08/08 02:18:56;;;;;;;;;5.00;5.00;;;;;22.41;38.60;101625.13;2079307;28;47399;-64
2022/08/08 02:20:01;;;;;;;;;4.20;4.20;;;;;22.40;39.20;101631.50;2079405;28;47758;-65
2022/08/08 02:22:56;;;;;;;;;4.60;4.60;;;;;22.32;38.79;101621.97;2075833;28;47995;-65
2022/08/08 02:24:17;;;;;;;;;4.40;4.40;;;;;22.30;39.35;101626.63;2079486;28;47672;-65
2022/08/08 02:25:28;;;;;;;;;7.80;3.40;;;;;22.28;39.23;101619.56;2071483;28;47918;-64
2022/08/08 02:26:34;;;;;;;;;2.80;2.20;;;;;22.27;39.34;101625.91;2079745;28;47610;-64
2022/08/08 02:27:39;;;;;;;;;6.00;6.00;;;;;22.24;39.54;101626.97;2079423;28;47483;-65
2022/08/08 02:28:45;;;;;;;;;6.80;5.80;;;;;22.25;39.60;101630.56;2079513;28;48037;-63
2022/08/08 02:29:57;;;;;;;;;3.00;3.00;;;;;22.24;39.54;101624.28;2071186;28;47582;-65
2022/08/08 02:31:11;;;;;;;;;6.60;6.20;;;;;22.24;39.08;101626.09;2072516;28;47976;-64
2022/08/08 02:33:06;;;;;;;;;7.00;7.00;;;;;22.26;39.66;101625.06;2079379;28;47266;-65
2022/08/08 02:34:17;;;;;;;;;6.00;6.00;;;;;22.24;39.38;101621.56;2046447;28;47843;-64
2022/08/08 02:35:36;;;;;;;;;4.60;4.60;;;;;22.20;39.46;101622.66;2047337;28;47599;-64
2022/08/08 02:36:53;;;;;;;;;5.80;5.60;;;;;22.21;39.30;101620.84;2046849;28;47422;-66
2022/08/08 02:38:31;;;;;;;;;6.20;6.20;;;;;22.20;39.70;101624.50;2046239;28;48256;-64
2022/08/08 02:39:57;;;;;;;;;5.00;5.00;;;;;22.19;39.78;101622.75;2047186;28;47293;-64
2022/08/08 02:41:06;;;;;;;;;6.60;6.60;;;;;22.18;39.82;101624.59;2038556;28;47718;-65
2022/08/08 02:42:28;;;;;;;;;6.00;6.00;;;;;22.17;39.36;101624.69;2039824;28;48057;-65
2022/08/08 02:43:37;;;;;;;;;6.20;4.80;;;;;22.17;39.43;101630.97;2047374;28;47580;-64
2022/08/08 02:45:00;;;;;;;;;5.40;5.40;;;;;22.17;39.95;101627.38;2046845;28;47860;-65
2022/08/08 02:46:42;;;;;;;;;4.80;4.00;;;;;22.14;39.45;101627.56;2046867;28;47448;-65
2022/08/08 02:48:08;;;;;;;;;5.00;4.20;;;;;22.12;39.78;101627.66;2047051;28;47552;-65
2022/08/08 02:49:30;;;;;;;;;6.20;6.20;;;;;22.09;39.76;101627.81;2023008;29;47673;-64
2022/08/08 02:51:02;;;;;;;;;4.00;4.00;;;;;22.07;39.71;101626.16;2032521;28;47506;-65
2022/08/08 02:52:31;;;;;;;;;6.00;6.00;;;;;22.05;40.22;101626.19;2038831;28;47888;-65
2022/08/08 02:54:07;;;;;;;;;5.40;5.00;;;;;22.05;40.09;101634.31;2038638;28;47399;-65
2022/08/08 02:55:26;;;;;;;;;4.00;4.00;;;;;22.05;40.29;101631.59;2041916;28;47766;-65
2022/08/08 02:56:45;;;;;;;;;5.00;5.00;;;;;22.05;40.32;101631.59;2038921;28;47744;-64
2022/08/08 02:58:43;;;;;;;;;4.60;3.80;;;;;22.06;40.18;101633.38;2030813;29;47387;-65
2022/08/08 02:59:52;;;;;;;;;4.20;4.20;;;;;22.04;40.15;101625.31;2025430;29;47514;-66
2022/08/08 03:01:30;;;;;;;;;4.60;4.60;;;;;22.04;39.78;101629.88;2031012;29;47726;-65
2022/08/08 03:03:12;;;;;;;;;6.60;6.60;;;;;22.01;40.44;101630.91;2023345;29;46401;-64
2022/08/08 03:04:34;;;;;;;;;4.00;4.00;;;;;22.01;39.87;101630.91;2023176;29;46201;-65
2022/08/08 03:05:56;;;;;;;;;5.60;5.60;;;;;21.99;40.22;101629.25;2030820;29;47800;-64
2022/08/08 03:07:31;;;;;;;;;6.00;5.80;;;;;21.97;40.21;101634.72;2037266;28;47453;-64
2022/08/08 03:09:02;;;;;;;;;5.80;5.80;;;;;21.96;40.26;101627.56;2036863;28;47903;-65
2022/08/08 03:10:21;;;;;;;;;5.40;5.40;;;;;21.95;40.37;101633.94;2028725;29;47621;-66
2022/08/08 03:11:59;;;;;;;;;6.00;6.00;;;;;21.94;40.06;101629.47;2037524;28;47536;-64
2022/08/08 03:13:33;;;;;;;;;6.20;6.20;;;;;21.95;40.22;101630.34;2052099;28;47657;-64
2022/08/08 03:14:50;;;;;;;;;5.40;5.40;;;;;21.94;40.46;101626.78;2054576;28;47456;-65
2022/08/08 03:16:15;;;;;;;;;5.20;5.20;;;;;21.93;40.74;101626.88;2054414;28;47583;-64
2022/08/08 03:17:30;;;;;;;;;9.00;7.60;;;;;21.92;40.28;101626.00;2047523;28;47762;-65
2022/08/08 03:18:36;;;;;;;;;8.40;7.40;;;;;21.91;40.25;101632.38;2038819;28;47662;-65
2022/08/08 03:19:45;;;;;;;;;5.80;4.40;;;;;21.92;40.50;101639.50;2045851;28;47663;-66
2022/08/08 03:20:49;;;;;;;;;8.80;7.80;;;;;21.91;40.73;101636.91;2046595;28;47505;-66
2022/08/08 03:21:50;;;;;;;;;10.80;7.00;;;;;21.90;40.39;101633.31;2046928;28;47694;-65
2022/08/08 03:22:52;;;;;;;;;5.50;4.50;;;;;21.90;40.77;101644.13;2047757;28;47482;-65
2022/08/08 03:23:52;;;;;;;;;7.40;6.60;;;;;21.88;40.74;101631.66;2048609;28;47658;-64
2022/08/08 03:24:53;;;;;;;;;6.25;6.25;;;;;21.89;40.88;101638.81;2041428;28;47371;-66
2022/08/08 03:25:55;;;;;;;;;6.00;6.00;;;;;21.87;40.64;101636.19;2038503;28;47421;-64
2022/08/08 03:27:06;;;;;;;;;7.20;5.40;;;;;21.86;40.54;101639.88;2058026;28;47897;-63
2022/08/08 03:28:20;;;;;;;;;6.80;6.80;;;;;21.86;40.67;101631.75;2070968;28;47633;-65
2022/08/08 03:29:31;;;;;;;;;5.80;5.80;;;;;21.85;41.12;101629.09;2072579;28;47555;-64
2022/08/08 03:30:32;;;;;;;;;6.20;6.20;;;;;21.83;40.59;101631.03;2078654;28;47165;-64
2022/08/08 03:34:14;;;;;;;;;5.40;5.40;;;;;21.79;41.02;101635.72;2104495;28;47093;-64
2022/08/08 03:35:15;;;;;;;;;5.20;5.20;;;;;21.77;40.83;101634.06;2104380;28;47232;-66
2022/08/08 03:36:16;;;;;;;;;6.00;6.00;;;;;21.76;40.71;101638.59;2105404;27;47576;-65
2022/08/08 03:37:17;;;;;;;;;7.00;6.00;;;;;21.76;41.46;101635.03;2104717;27;46855;-65
2022/08/08 03:38:21;;;;;;;;;7.00;5.75;;;;;21.75;41.29;101634.16;2105146;27;47829;-64
2022/08/08 03:39:21;;;;;;;;;7.20;7.20;;;;;21.72;41.15;101632.50;2103514;28;46681;-65
2022/08/08 03:40:23;;;;;;;;;7.00;7.00;;;;;21.73;40.99;101636.06;2105564;27;47852;-64
2022/08/08 03:41:33;;;;;;;;;8.40;8.40;;;;;21.70;41.19;101639.78;2112357;27;47654;-64
2022/08/08 03:42:37;;;;;;;;;7.60;7.00;;;;;21.70;41.05;101634.38;2110935;27;47952;-66
2022/08/08 03:43:37;;;;;;;;;7.00;7.00;;;;;21.70;41.07;101639.78;2104953;27;47507;-64
2022/08/08 03:44:37;;;;;;;;;8.00;7.00;;;;;21.70;40.87;101636.22;2105260;27;47279;-63
2022/08/08 03:45:40;;;;;;;;;7.25;7.00;;;;;21.69;40.80;101640.75;2104815;27;47348;-64
2022/08/08 03:46:45;;;;;;;;;7.00;7.00;;;;;21.68;41.32;101640.84;2105192;27;47743;-64
2022/08/08 03:48:01;;;;;;;;;10.00;9.80;;;;;21.69;40.92;101642.56;2096634;28;47503;-63
2022/08/08 03:49:03;;;;;;;;;7.20;7.20;;;;;21.68;41.17;101641.72;2104592;27;47507;-64
2022/08/08 03:50:04;;;;;;;;;8.80;8.80;;;;;21.69;40.92;101640.75;2104740;27;47645;-64
2022/08/08 03:51:05;;;;;;;;;7.75;7.75;;;;;21.69;40.89;101640.75;2104857;27;47344;-64
2022/08/08 03:52:08;;;;;;;;;8.00;6.40;;;;;21.70;41.63;101652.44;2105455;27;47217;-66
2022/08/08 03:53:12;;;;;;;;;9.00;9.00;;;;;21.69;41.36;101646.16;2104628;27;47283;-64
2022/08/08 03:54:13;;;;;;;;;8.80;8.80;;;;;21.69;41.51;101648.84;2096766;28;47391;-64
2022/08/08 03:55:17;;;;;;;;;6.20;6.00;;;;;21.68;41.73;101652.50;2102229;28;47867;-64
2022/08/08 03:56:18;;;;;;;;;8.20;7.60;;;;;21.68;40.97;101646.25;2095189;28;47266;-64
2022/08/08 03:57:19;;;;;;;;;7.80;7.40;;;;;21.67;41.66;101649.91;2095217;28;47600;-66
2022/08/08 03:58:23;;;;;;;;;10.25;10.25;;;;;21.67;41.58;101655.28;2104756;27;47423;-65
2022/08/08 03:59:29;;;;;;;;;6.60;6.60;;;;;21.66;41.34;101645.44;2111790;27;47777;-65
2022/08/08 04:00:30;;;;;;;;;8.20;8.20;;;;;21.65;41.24;101655.38;2111665;27;47307;-64
2022/08/08 04:01:38;;;;;;;;;9.25;9.25;;;;;21.67;41.07;101655.28;2104889;27;47432;-65
2022/08/08 04:02:39;;;;;;;;;8.60;6.60;;;;;21.65;41.84;101651.81;2104817;27;47674;-64
2022/08/08 04:03:39;;;;;;;;;9.00;8.00;;;;;21.64;41.79;101644.66;2112715;27;45685;-64
2022/08/08 04:04:39;;;;;;;;;12.00;10.25;;;;;21.63;41.60;101653.72;2112720;27;47194;-65
2022/08/08 04:05:40;;;;;;;;;11.25;9.75;;;;;21.62;41.56;101658.25;2095237;28;46307;-64
2022/08/08 04:06:55;;;;;;;;;7.00;7.00;;;;;21.61;41.58;101659.22;2095376;28;47719;-65
2022/08/08 04:07:56;;;;;;;;;8.60;7.60;;;;;21.61;41.80;101656.50;2104687;28;47552;-64
2022/08/08 04:09:02;;;;;;;;;8.80;8.80;;;;;21.59;41.24;101655.69;2104886;27;47887;-65
2022/08/08 04:10:03;;;;;;;;;9.00;8.20;;;;;21.57;41.72;101648.63;2110566;27;47528;-65
2022/08/08 04:11:05;;;;;;;;;6.50;6.00;;;;;21.57;41.51;101656.72;2111881;27;47329;-66
2022/08/08 04:12:06;;;;;;;;;8.00;6.60;;;;;21.55;41.75;101650.53;2111846;27;47227;-65
2022/08/08 04:13:07;;;;;;;;;9.50;9.25;;;;;21.54;42.01;101655.06;2105281;27;44962;-66
2022/08/08 04:14:07;;;;;;;;;8.00;8.00;;;;;21.53;41.91;101657.84;2105045;27;47569;-65
2022/08/08 04:15:08;;;;;;;;;7.50;7.50;;;;;21.52;41.46;101661.50;2104820;27;47140;-66
2022/08/08 04:16:08;;;;;;;;;5.00;5.00;;;;;21.50;41.96;101650.78;2111936;27;47436;-65
2022/08/08 04:17:09;;;;;;;;;6.75;6.75;;;;;21.49;41.56;101658.97;2103724;28;47421;-65
2022/08/08 04:18:10;;;;;;;;;7.75;7.75;;;;;21.46;42.07;101649.19;2094752;28;47214;-65
2022/08/08 04:19:10;;;;;;;;;10.00;9.60;;;;;21.44;42.04;101657.38;2103670;28;47543;-65
2022/08/08 04:20:11;;;;;;;;;7.75;7.50;;;;;21.44;41.50;101651.09;2105095;28;47798;-64
2022/08/08 04:21:12;;;;;;;;;7.60;7.60;;;;;21.42;42.03;101656.59;2104783;27;47324;-65
2022/08/08 04:22:12;;;;;;;;;9.00;9.00;;;;;21.39;42.12;101656.75;2104874;27;47806;-64
2022/08/08 04:23:13;;;;;;;;;10.50;10.50;;;;;21.38;42.15;101663.09;2104795;27;47394;-65
2022/08/08 04:24:13;;;;;;;;;9.25;9.25;;;;;21.37;42.30;101660.50;2104503;27;47614;-64
2022/08/08 04:25:13;;;;;;;;;11.25;8.50;;;;;21.35;42.09;101662.41;2104497;27;47164;-64
2022/08/08 04:26:14;;;;;;;;;10.50;9.50;;;;;21.33;42.07;101661.56;2105074;27;47714;-65
2022/08/08 04:27:14;;;;;;;;;7.50;7.50;;;;;21.32;42.48;101666.09;2104764;27;47649;-64
2022/08/08 04:28:15;;;;;;;;;8.50;7.75;;;;;21.31;42.01;101663.50;2104787;27;47470;-65
2022/08/08 04:29:15;;;;;;;;;7.00;7.00;;;;;21.30;42.56;101664.44;2104626;27;47217;-65
2022/08/08 04:30:15;;;;;;;;;10.50;8.75;;;;;21.29;42.13;101668.97;2104685;27;47653;-65
2022/08/08 04:31:16;;;;;;;;;7.50;6.25;;;;;21.27;42.57;101668.19;2104761;27;47792;-65
2022/08/08 04:32:17;;;;;;;;;5.25;5.00;;;;;21.27;42.42;101667.31;2104698;28;47468;-64
2022/08/08 04:33:17;;;;;;;;;7.80;6.20;;;;;21.26;42.23;101669.13;2104521;28;47369;-65
2022/08/08 04:34:18;;;;;;;;;6.75;6.75;;;;;21.24;42.24;101672.84;2104523;27;48007;-65
2022/08/08 04:35:18;;;;;;;;;7.00;7.00;;;;;21.23;42.60;101663.88;2104794;27;47823;-64
2022/08/08 04:36:19;;;;;;;;;7.25;7.25;;;;;21.22;42.77;101666.66;2104686;27;46268;-65
2022/08/08 04:37:19;;;;;;;;;10.00;10.00;;;;;21.21;42.69;101676.53;2104594;27;47976;-65
2022/08/08 04:38:20;;;;;;;;;8.50;8.25;;;;;21.20;42.77;101673.94;2104806;28;47312;-65
2022/08/08 04:39:20;;;;;;;;;8.25;7.75;;;;;21.19;42.34;101664.97;2104543;27;47035;-66
2022/08/08 04:40:21;;;;;;;;;7.00;7.00;;;;;21.19;42.81;101669.47;2104042;28;47110;-66
2022/08/08 04:41:21;;;;;;;;;7.25;6.50;;;;;21.17;42.57;101667.75;2078456;28;47122;-67
2022/08/08 04:42:24;;;;;;;;;7.75;7.75;;;;;21.18;43.04;101674.00;2087494;28;46957;-66
2022/08/08 04:43:24;;;;;;;;;7.80;7.80;;;;;21.17;42.68;101666.88;2105804;28;47812;-64
2022/08/08 04:44:25;;;;;;;;;8.25;8.00;;;;;21.13;42.40;101671.56;2106263;27;47323;-65
2022/08/08 04:45:25;;;;;;;;;4.50;4.50;;;;;21.12;42.24;101668.94;2106047;27;47093;-67
2022/08/08 04:46:26;;;;;;;;;5.00;5.00;;;;;21.11;43.03;101676.16;2106494;27;47886;-65
2022/08/08 04:47:26;;;;;;;;;6.75;6.75;;;;;21.10;42.55;101673.53;2106062;27;47431;-66
2022/08/08 04:48:27;;;;;;;;;7.00;7.00;;;;;21.10;43.31;101674.41;2106273;27;47643;-67
2022/08/08 04:49:27;;;;;;;;;7.00;6.75;;;;;21.10;42.64;101674.41;2106085;27;47811;-65
2022/08/08 04:50:28;;;;;;;;;6.00;6.00;;;;;21.09;43.08;101666.41;2106073;27;47633;-66
2022/08/08 04:51:28;;;;;;;;;7.50;7.50;;;;;21.10;43.08;101668.16;2106003;27;47327;-65
2022/08/08 04:52:29;;;;;;;;;7.00;7.00;;;;;21.09;43.08;101672.66;2106099;27;46954;-66
2022/08/08 04:53:29;;;;;;;;;10.00;9.00;;;;;21.11;42.60;101669.88;2106268;27;47261;-66
2022/08/08 04:54:29;;;;;;;;;7.25;6.50;;;;;21.10;43.18;101678.94;2106414;27;47558;-67
2022/08/08 04:55:31;;;;;;;;;7.25;6.50;;;;;21.10;42.62;101673.53;2105656;27;47750;-65
2022/08/08 04:56:32;;;;;;;;;7.00;7.00;;;;;21.11;43.14;101678.84;2106001;27;48111;-66
2022/08/08 04:57:32;;;;;;;;;8.75;7.25;;;;;21.10;42.74;101676.25;2106189;27;47518;-66
2022/08/08 04:58:32;;;;;;;;;9.00;8.50;;;;;21.10;42.81;101676.25;2104160;28;47880;-66
2022/08/08 04:59:33;;;;;;;;;8.00;8.00;;;;;21.11;43.23;101684.25;2106126;27;47579;-66
2022/08/08 05:00:34;;;;;;;;;7.75;6.00;;;;;21.11;42.73;101680.69;2106556;27;47528;-65
2022/08/08 05:01:34;;;;;;;;;7.25;6.25;;;;;21.09;42.72;101674.50;2113279;27;47043;-66
2022/08/08 05:02:34;;;;;;;;;7.50;7.50;;;;;21.10;42.73;101673.53;2113409;27;47972;-66
2022/08/08 05:03:35;;;;;;;;;7.50;7.50;;;;;21.11;43.07;101681.56;2106496;27;47445;-66
2022/08/08 05:04:35;;;;;;;;;8.25;8.25;;;;;21.11;42.90;101675.28;2105929;27;47716;-65
2022/08/08 05:05:36;;;;;;;;;9.25;9.25;;;;;21.10;43.16;101677.13;2105991;27;47603;-65
2022/08/08 05:06:36;;;;;;;;;8.50;8.00;;;;;21.11;43.07;101683.38;2106104;27;47989;-66
2022/08/08 05:07:37;;;;;;;;;9.00;7.25;;;;;21.11;43.07;101681.56;2105860;28;47339;-65
2022/08/08 05:08:37;;;;;;;;;6.50;6.50;;;;;21.11;42.61;101686.09;2113069;27;47964;-67
2022/08/08 05:09:37;;;;;;;;;7.00;7.00;;;;;21.11;43.26;101686.97;2113889;27;47133;-66
2022/08/08 05:10:38;;;;;;;;;7.00;7.00;;;;;21.12;42.85;101685.13;2105829;27;47435;-66
2022/08/08 05:11:39;;;;;;;;;10.00;10.00;;;;;21.14;43.45;101685.91;2105849;27;47557;-65
2022/08/08 05:12:40;;;;;;;;;8.00;8.00;;;;;21.14;42.69;101686.78;2105996;27;47610;-66
2022/08/08 05:13:42;;;;;;;;;7.00;7.00;;;;;21.13;43.32;101687.75;2106213;27;47849;-65
2022/08/08 05:14:43;;;;;;;;;6.40;6.20;;;;;21.11;42.70;101684.25;2105814;27;46024;-66
2022/08/08 05:15:44;;;;;;;;;6.80;6.80;;;;;21.10;42.89;101693.31;2106086;27;47160;-67
2022/08/08 05:16:44;;;;;;;;;8.25;8.25;;;;;21.09;42.79;101693.38;2105828;27;47602;-65
2022/08/08 05:17:44;;;;;;;;;8.50;7.25;;;;;21.09;43.50;101693.38;2106016;27;47954;-66
2022/08/08 05:18:45;;;;;;;;;7.75;7.75;;;;;21.08;43.44;101695.19;2105884;27;47730;-66
2022/08/08 05:19:45;;;;;;;;;10.00;10.00;;;;;21.08;43.34;101691.63;2106183;27;47783;-66
2022/08/08 05:20:45;;;;;;;;;12.75;12.25;;;;;21.07;43.18;101688.03;2105622;27;47091;-67
2022/08/08 05:21:46;;;;;;;;;9.00;9.00;;;;;21.07;43.07;101689.88;2105923;27;47541;-66
2022/08/08 05:22:49;;;;;;;;;7.50;7.50;;;;;21.06;43.50;101693.53;2106285;27;47662;-66
2022/08/08 05:23:49;;;;;;;;;9.20;8.20;;;;;21.05;42.79;101692.66;2106125;27;48001;-65
2022/08/08 05:24:50;;;;;;;;;7.50;7.25;;;;;21.05;43.19;101692.66;2105824;27;46994;-65
2022/08/08 05:25:50;;;;;;;;;10.00;9.00;;;;;21.04;43.11;101690.91;2105888;27;47440;-65
2022/08/08 05:26:51;;;;;;;;;9.50;9.25;;;;;21.03;43.45;101699.06;2106241;27;47299;-65
2022/08/08 05:27:52;;;;;;;;;8.00;7.75;;;;;21.04;43.30;101698.13;2106022;27;47681;-64
2022/08/08 05:28:52;;;;;;;;;8.60;8.40;;;;;21.06;43.73;101698.91;2105827;27;47517;-63
2022/08/08 05:29:52;;;;;;;;;8.75;8.75;;;;;21.06;43.07;101702.50;2106007;27;47414;-65
2022/08/08 05:30:53;;;;;;;;;7.50;7.50;;;;;21.07;43.27;101701.53;2105644;27;47709;-66
2022/08/08 05:31:53;;;;;;;;;10.00;9.75;;;;;21.06;43.20;101699.78;2106197;27;47589;-65
2022/08/08 05:32:54;;;;;;;;;9.75;9.75;;;;;21.06;43.43;101705.19;2105754;27;47854;-66
2022/08/08 05:33:54;;;;;;;;;9.75;9.75;;;;;21.07;43.35;101696.13;2106035;27;47549;-65
2022/08/08 05:34:58;;;;;;;;;9.25;8.25;;;;;21.09;43.55;101705.06;2105953;27;47318;-65
2022/08/08 05:36:00;;;;;;;;;7.60;7.60;;;;;21.08;43.48;101708.69;2105653;27;47381;-67